createdAt,value
2022-08-17T00:04:18.854Z,0.00
2022-08-17T00:14:18.923Z,0.00
2022-08-17T00:24:19.611Z,0.00
2022-08-17T00:34:19.257Z,0.00
2022-08-17T00:44:19.640Z,0.00
2022-08-17T00:54:19.679Z,0.00
2022-08-17T01:04:20.016Z,0.00
2022-08-17T01:14:20.061Z,0.00
2022-08-17T01:24:20.340Z,0.00
2022-08-17T01:34:20.426Z,0.00
2022-08-17T01:44:20.691Z,0.00
2022-08-17T01:54:20.716Z,0.00
2022-08-17T02:04:20.934Z,0.00
2022-08-17T02:14:20.980Z,0.00
2022-08-17T02:24:58.754Z,0.00
2022-08-17T02:34:22.496Z,0.00
2022-08-17T02:44:39.468Z,0.00
2022-08-17T02:54:40.318Z,0.00
2022-08-17T03:04:23.054Z,0.00
2022-08-17T03:14:26.131Z,0.00
2022-08-17T03:24:25.702Z,0.00
2022-08-17T03:34:23.524Z,0.00
2022-08-17T03:44:22.793Z,0.00
2022-08-17T03:54:23.022Z,0.00
2022-08-17T04:04:27.722Z,4.00
2022-08-17T04:14:23.346Z,8.00
2022-08-17T04:24:23.694Z,20.00
2022-08-17T04:34:23.721Z,48.00
2022-08-17T04:44:36.803Z,76.00
2022-08-17T04:54:25.116Z,104.00
2022-08-17T05:04:34.559Z,136.00
2022-08-17T05:14:33.175Z,168.00
2022-08-17T05:24:43.109Z,228.00
2022-08-17T05:34:25.784Z,304.00
2022-08-17T05:44:25.113Z,352.00
2022-08-17T05:54:25.145Z,444.00
2022-08-17T06:04:25.445Z,228.00
2022-08-17T06:14:25.605Z,288.00
2022-08-17T06:24:25.689Z,356.00
2022-08-17T06:34:25.735Z,636.00
2022-08-17T06:44:49.675Z,760.00
2022-08-17T06:54:27.138Z,392.00
2022-08-17T07:04:26.361Z,924.00
2022-08-17T07:14:26.673Z,1084.00
2022-08-17T07:24:30.460Z,1364.00
2022-08-17T07:34:26.785Z,768.00
2022-08-17T07:44:26.987Z,800.00
2022-08-17T07:54:27.028Z,1100.00
2022-08-17T08:04:49.918Z,1800.00
2022-08-17T08:14:28.851Z,836.00
2022-08-17T08:24:30.169Z,1584.00
2022-08-17T08:34:54.736Z,1964.00
2022-08-17T08:44:59.050Z,1228.00
2022-08-17T08:54:29.159Z,888.00
2022-08-17T09:04:28.495Z,828.00
2022-08-17T09:14:29.332Z,2896.00
2022-08-17T09:24:28.638Z,2552.00
2022-08-17T09:34:33.263Z,2836.00
2022-08-17T09:44:29.061Z,2936.00
2022-08-17T09:54:44.669Z,2932.00
2022-08-17T10:04:30.455Z,3148.00
2022-08-17T10:14:36.869Z,3156.00
2022-08-17T10:24:30.864Z,3196.00
2022-08-17T10:34:29.964Z,3048.00
2022-08-17T10:44:38.043Z,3208.00
2022-08-17T10:54:31.109Z,3232.00
2022-08-17T11:04:30.392Z,3292.00
2022-08-17T11:14:30.432Z,3584.00
2022-08-17T11:24:30.744Z,1108.00
2022-08-17T11:34:30.782Z,1068.00
2022-08-17T11:44:31.086Z,3536.00
2022-08-17T11:54:33.425Z,3268.00
2022-08-17T12:04:31.350Z,1940.00
2022-08-17T12:15:05.739Z,3440.00
2022-08-17T12:24:32.663Z,2824.00
2022-08-17T12:34:31.961Z,3292.00
2022-08-17T12:44:32.002Z,3216.00
2022-08-17T12:54:34.595Z,3988.00
2022-08-17T13:04:32.455Z,3740.00
2022-08-17T13:14:33.278Z,3180.00
2022-08-17T13:24:38.206Z,3808.00
2022-08-17T13:34:34.126Z,2128.00
2022-08-17T13:44:33.406Z,3428.00
2022-08-17T13:54:33.770Z,3048.00
2022-08-17T14:04:33.810Z,2708.00
2022-08-17T14:14:34.113Z,2136.00
2022-08-17T14:24:34.168Z,1776.00
2022-08-17T14:34:34.457Z,1112.00
2022-08-17T14:44:34.483Z,1052.00
2022-08-17T14:54:34.811Z,856.00
2022-08-17T15:04:34.856Z,740.00
2022-08-17T15:14:35.166Z,680.00
2022-08-17T15:24:35.208Z,596.00
2022-08-17T15:34:35.616Z,544.00
2022-08-17T15:44:35.656Z,480.00
2022-08-17T15:54:36.088Z,468.00
2022-08-17T16:04:36.317Z,416.00
2022-08-17T16:14:36.283Z,388.00
2022-08-17T16:24:36.607Z,336.00
2022-08-17T16:34:36.637Z,308.00
2022-08-17T16:44:36.948Z,304.00
2022-08-17T16:54:36.979Z,372.00
2022-08-17T17:04:37.289Z,244.00
2022-08-17T17:14:37.390Z,100.00
2022-08-17T17:24:37.542Z,64.00
2022-08-17T17:34:37.575Z,44.00
2022-08-17T17:44:37.914Z,44.00
2022-08-17T17:54:37.946Z,24.00
2022-08-17T18:04:38.267Z,12.00
2022-08-17T18:14:38.392Z,4.00
2022-08-17T18:24:38.504Z,4.00
2022-08-17T18:34:46.974Z,0.00
2022-08-17T18:44:39.794Z,0.00
2022-08-17T18:54:39.116Z,0.00
2022-08-17T19:04:39.183Z,0.00
2022-08-17T19:14:39.357Z,0.00
2022-08-17T19:24:47.723Z,0.00
2022-08-17T19:34:40.502Z,0.00
2022-08-17T19:44:39.819Z,0.00
2022-08-17T19:54:39.868Z,0.00
2022-08-17T20:04:40.340Z,0.00
2022-08-17T20:14:40.370Z,0.00
2022-08-17T20:24:41.433Z,0.00
2022-08-17T20:34:40.761Z,0.00
2022-08-17T20:44:40.792Z,0.00
2022-08-17T20:54:41.134Z,0.00
2022-08-17T21:04:41.174Z,0.00
2022-08-17T21:14:41.462Z,0.00
2022-08-17T21:24:41.492Z,0.00
2022-08-17T21:34:41.805Z,0.00
2022-08-17T21:44:41.847Z,0.00
2022-08-17T21:54:42.166Z,0.00
2022-08-17T22:04:42.569Z,0.00
2022-08-17T22:14:53.003Z,0.00
2022-08-17T22:24:43.498Z,0.00
2022-08-17T22:34:42.984Z,0.00
2022-08-17T22:44:42.809Z,0.00
2022-08-17T22:54:43.108Z,0.00
2022-08-17T23:04:43.148Z,0.00
2022-08-17T23:14:43.459Z,0.00
2022-08-17T23:24:43.479Z,0.00
2022-08-17T23:34:43.803Z,0.00
2022-08-17T23:44:43.810Z,0.00
2022-08-17T23:54:44.155Z,0.00
